createdAt,value
2023-02-17T00:18:17.602Z,1027.92
2023-02-17T00:47:21.439Z,1027.91
2023-02-17T01:16:31.172Z,1027.94
2023-02-17T01:45:20.359Z,1027.9
2023-02-17T02:14:20.814Z,1027.71
2023-02-17T02:43:31.611Z,1027.51
2023-02-17T03:12:32.276Z,1027.41
2023-02-17T03:41:34.794Z,1027.3
2023-02-17T04:10:33.962Z,1027.27
2023-02-17T04:39:36.400Z,1027.4
2023-02-17T05:08:42.851Z,1027.3
2023-02-17T05:37:48.716Z,1027.55
2023-02-17T06:06:55.494Z,1027.52
2023-02-17T06:35:50.073Z,1027.92
2023-02-17T07:04:56.498Z,1028.09
2023-02-17T07:34:09.513Z,1028.29
2023-02-17T08:03:14.834Z,1028.58
2023-02-17T08:32:22.493Z,1028.8
2023-02-17T09:01:12.801Z,1028.83
2023-02-17T09:30:08.491Z,1028.83
2023-02-17T09:59:01.536Z,1029.28
2023-02-17T10:28:08.018Z,1029.06
2023-02-17T10:57:12.243Z,1029.02
2023-02-17T11:26:13.269Z,1028.86
2023-02-17T11:55:15.682Z,1028.87
2023-02-17T12:24:27.581Z,1028.51
2023-02-17T12:53:37.383Z,1028.46
2023-02-17T13:22:47.433Z,1028.17
2023-02-17T13:51:05.469Z,1028.08
2023-02-17T14:19:27.770Z,1028.03
2023-02-17T14:48:32.870Z,1027.8
2023-02-17T15:17:32.842Z,1027.53
2023-02-17T15:45:51.989Z,1027.49
2023-02-17T16:14:08.479Z,1027.6
2023-02-17T16:42:23.508Z,1027.91
2023-02-17T17:10:41.449Z,1028.38
2023-02-17T17:38:56.924Z,1028.63
2023-02-17T18:07:19.698Z,1028.79
2023-02-17T18:35:42.855Z,1028.95
2023-02-17T19:04:05.998Z,1029.42
2023-02-17T19:33:04.817Z,1029.55
2023-02-17T20:01:30.578Z,1029.77
2023-02-17T20:29:44.688Z,1030.09
2023-02-17T20:58:03.768Z,1030.06
2023-02-17T21:26:28.458Z,1029.87
2023-02-17T21:54:51.231Z,1029.82
2023-02-17T22:23:07.672Z,1029.72
2023-02-17T22:51:31.777Z,1029.75
2023-02-17T23:19:53.957Z,1029.6
2023-02-17T23:48:13.873Z,1029.42
